Johnstown, Ohio
Current Conditions -  °F | °C
As of 7:29 PM on Monday 20 Oct 2014 (Local Time) from KCMH Reporting Station
Broken Clouds Broken Clouds  
Wind Chill: 12°   Ceiling: 6000
Heat Index: 12°   Visibility: 10mi
Dew Point: 10°   Wind: 3mph
Humidity: 88%   Direction: 160°SSE
Pressure: 29.87"   Gusts: NA
Location:  40.15°N, 82.69°W
Report Text: KCMH 202329Z 16003KT 10SM FEW034 BKN060 BKN085 12/10 A2987 RMK AO2 TSE29RAB2255E26 OCNL LTGIC DSNT E CB DSNT E TS MOV E P0001
Loading
Personal Weather Stations






























Interactive Weather Map
Tropical Storm Tracking
New forecast layout! Learn more

10-Day Weather Forecast

Advertisements
Track Severe Weather on mobile